Mechanicsville, Pennsylvania
Current Conditions -  °F | °C
As of 10:54 AM on Friday 31 Oct 2014 (Local Time) from KDYL Reporting Station
Clear Clear  
Wind Chill: 44°   Ceiling: Unl
Heat Index: 48°   Visibility: 10mi
Dew Point: 36°   Wind: 8mph
Humidity: 63%   Direction: 30°NNE
Pressure: 29.99"   Gusts: NA
Location:  40.34°N, 75.06°W
Report Text: KDYL 311454Z AUTO 03007KT 10SM CLR 09/02 A2999 RMK AO2 SLP159 T00890022 58011 $
Loading
Personal Weather Stations






























Interactive Weather Map
Tropical Storm Tracking
New forecast layout! Learn more

10-Day Weather Forecast

Advertisements
Track Severe Weather on mobile